Time;durP1;ratioP1;P1;durP2;ratioP2;P2;SDS_P1;SDS_P2;PMS_P1;PMS_P2;Temp;Humidity;BMP_temperature;BMP_pressure;BME280_temperature;BME280_humidity;BME280_pressure;Samples;Min_cycle;Max_cycle;Signal;HPM_P1;HPM_P2
2021/10/30 00:01:36;;;;;;;7.18;4.65;;;;;;;10.47;71.06;100403.28;5021641;28;20029;-43
2021/10/30 00:04:02;;;;;;;5.10;4.60;;;;;;;10.46;71.04;100396.22;5031929;28;20184;-42
2021/10/30 00:06:28;;;;;;;5.85;4.63;;;;;;;10.47;71.10;100400.63;5020935;28;20030;-42
2021/10/30 00:08:53;;;;;;;5.07;4.57;;;;;;;10.47;71.16;100390.09;5014386;28;20037;-44
2021/10/30 00:11:18;;;;;;;4.45;4.03;;;;;;;10.47;71.04;100398.84;5044855;28;20474;-42
2021/10/30 00:13:44;;;;;;;6.53;4.80;;;;;;;10.46;71.12;100398.88;5029289;28;20057;-42
2021/10/30 00:16:09;;;;;;;7.22;5.03;;;;;;;10.47;71.05;100398.00;5017885;28;20053;-42
2021/10/30 00:18:34;;;;;;;6.82;6.22;;;;;;;10.45;70.97;100403.28;5008404;28;20037;-44
2021/10/30 00:21:00;;;;;;;8.05;6.05;;;;;;;10.45;71.01;100394.50;5025709;28;20381;-44
2021/10/30 00:23:25;;;;;;;4.97;4.25;;;;;;;10.45;71.01;100399.78;5033913;28;20029;-44
2021/10/30 00:25:51;;;;;;;5.60;4.07;;;;;;;10.45;71.02;100399.78;5025865;28;20025;-44
2021/10/30 00:28:16;;;;;;;5.45;4.95;;;;;;;10.45;71.14;100397.13;5013977;28;20378;-43
2021/10/30 00:30:41;;;;;;;5.57;5.03;;;;;;;10.45;70.83;100394.50;5015672;28;20036;-44
2021/10/30 00:33:07;;;;;;;8.02;4.78;;;;;;;10.44;71.00;100392.72;5014409;28;20026;-43
2021/10/30 00:35:32;;;;;;;4.82;4.32;;;;;;;10.44;71.10;100396.22;5017978;28;20038;-43
2021/10/30 00:37:58;;;;;;;4.93;4.43;;;;;;;10.45;71.23;100399.78;5027257;28;20128;-43
2021/10/30 00:40:23;;;;;;;4.35;3.85;;;;;;;10.43;71.19;100401.53;5033007;28;20029;-42
2021/10/30 00:42:48;;;;;;;5.97;4.88;;;;;;;10.44;71.24;100406.75;5030102;28;20029;-42
2021/10/30 00:45:14;;;;;;;4.90;4.43;;;;;;;10.44;70.80;100398.00;5031251;28;20063;-43
2021/10/30 00:47:39;;;;;;;5.40;4.88;;;;;;;10.43;70.88;100397.13;5016715;28;20021;-42
2021/10/30 00:50:05;;;;;;;4.72;3.97;;;;;;;10.43;70.84;100391.84;5031762;28;20026;-43
2021/10/30 00:52:31;;;;;;;7.03;5.30;;;;;;;10.43;70.96;100393.63;5014238;28;20049;-43
2021/10/30 00:54:58;;;;;;;5.43;4.25;;;;;;;10.44;70.91;100392.72;5013753;28;20026;-43
2021/10/30 00:57:27;;;;;;;5.10;4.43;;;;;;;10.42;70.75;100395.38;5017398;28;20545;-43
2021/10/30 00:59:54;;;;;;;4.57;4.15;;;;;;;10.41;70.77;100391.00;5019271;28;20486;-44
2021/10/30 01:02:19;;;;;;;5.18;4.68;;;;;;;10.42;70.81;100389.22;5013844;28;20105;-43
2021/10/30 01:04:46;;;;;;;3.88;3.38;;;;;;;10.42;70.80;100397.13;5028438;28;20164;-45
2021/10/30 01:07:11;;;;;;;6.55;5.45;;;;;;;10.42;70.66;100389.22;5027021;28;20025;-42
2021/10/30 01:09:37;;;;;;;5.05;4.53;;;;;;;10.43;70.88;100388.34;5031359;28;20029;-43
2021/10/30 01:12:02;;;;;;;6.28;4.88;;;;;;;10.42;70.92;100387.47;5025376;28;20506;-43
2021/10/30 01:14:28;;;;;;;5.75;4.03;;;;;;;10.40;70.65;100392.75;5029888;28;20026;-43
2021/10/30 01:17:02;;;;;;;6.65;6.03;;;;;;;10.42;70.80;100402.41;5025118;28;20029;-44
2021/10/30 01:19:29;;;;;;;5.07;4.30;;;;;;;10.40;70.96;100392.75;5031737;28;20108;-44
2021/10/30 01:21:54;;;;;;;5.82;5.03;;;;;;;10.40;70.82;100391.88;5029165;28;20378;-43
2021/10/30 01:24:20;;;;;;;6.50;5.13;;;;;;;10.40;70.78;100391.88;5016199;28;20474;-44
2021/10/30 01:26:45;;;;;;;4.28;3.88;;;;;;;10.41;70.68;100388.38;5016277;28;20041;-44
2021/10/30 01:29:11;;;;;;;5.07;3.90;;;;;;;10.40;70.94;100391.88;5020730;28;20025;-44
2021/10/30 01:31:36;;;;;;;5.43;4.93;;;;;;;10.40;70.92;100383.97;5028038;28;20390;-44
2021/10/30 01:34:06;;;;;;;6.90;4.97;;;;;;;10.39;70.62;100380.47;5030632;28;20116;-44
2021/10/30 01:36:32;;;;;;;4.95;4.55;;;;;;;10.38;70.75;100376.06;5030689;28;20017;-44
2021/10/30 01:38:58;;;;;;;6.05;5.53;;;;;;;10.38;70.65;100376.06;5025666;28;20021;-43
2021/10/30 01:41:25;;;;;;;6.45;5.65;;;;;;;10.37;70.58;100366.44;5025375;28;20036;-43
2021/10/30 01:43:55;;;;;;;7.28;5.90;;;;;;;10.38;70.79;100376.06;5018460;28;20032;-43
2021/10/30 01:46:22;;;;;;;5.75;4.40;;;;;;;10.36;70.73;100375.25;5022994;28;20429;-43
2021/10/30 01:48:47;;;;;;;4.25;3.85;;;;;;;10.36;70.54;100375.25;5016912;28;20625;-43
2021/10/30 01:51:12;;;;;;;7.03;5.10;;;;;;;10.37;70.59;100370.84;5017817;28;20033;-44
2021/10/30 01:53:38;;;;;;;6.75;4.88;;;;;;;10.37;70.74;100374.34;5026792;28;20030;-44
2021/10/30 01:56:04;;;;;;;5.90;4.70;;;;;;;10.36;70.75;100371.72;5022595;28;20454;-43
2021/10/30 01:58:29;;;;;;;5.63;4.95;;;;;;;10.35;70.48;100378.78;5026700;28;20029;-43
2021/10/30 02:00:57;;;;;;;8.13;5.82;;;;;;;10.35;70.57;100372.63;5020849;28;20031;-43
2021/10/30 02:03:24;;;;;;;5.13;4.47;;;;;;;10.35;70.64;100368.25;5015933;28;20087;-44
2021/10/30 02:05:51;;;;;;;4.60;4.15;;;;;;;10.36;70.47;100374.34;5011971;28;20092;-43
2021/10/30 02:08:16;;;;;;;5.95;5.35;;;;;;;10.36;70.68;100358.53;5012948;28;20052;-42
2021/10/30 02:10:42;;;;;;;6.72;5.40;;;;;;;10.34;70.73;100361.19;5021307;28;20065;-43
2021/10/30 02:13:07;;;;;;;5.07;4.55;;;;;;;10.35;70.60;100355.06;5026861;28;20094;-42
2021/10/30 02:15:32;;;;;;;5.57;4.85;;;;;;;10.35;70.38;100355.06;5019675;28;20569;-44
2021/10/30 02:17:58;;;;;;;6.35;4.68;;;;;;;10.34;70.41;100355.94;5016148;28;20095;-43
2021/10/30 02:20:23;;;;;;;7.15;5.68;;;;;;;10.34;70.75;100348.00;5006988;28;20124;-43
2021/10/30 02:22:52;;;;;;;5.60;5.10;;;;;;;10.33;70.53;100353.31;5024881;28;20113;-42
2021/10/30 02:25:17;;;;;;;5.60;4.82;;;;;;;10.34;70.57;100352.44;5022617;28;20393;-43
2021/10/30 02:27:43;;;;;;;6.25;4.88;;;;;;;10.33;70.60;100354.19;5018161;28;20420;-43
2021/10/30 02:30:08;;;;;;;5.07;4.65;;;;;;;10.33;70.42;100350.66;5026431;28;20029;-43
2021/10/30 02:32:35;;;;;;;5.00;4.15;;;;;;;10.33;70.32;100351.56;5026219;28;20584;-43
2021/10/30 02:35:00;;;;;;;7.53;5.75;;;;;;;10.33;70.39;100348.91;5025707;28;20113;-42
2021/10/30 02:37:25;;;;;;;6.40;5.47;;;;;;;10.32;70.73;100347.19;5027029;28;20120;-42
2021/10/30 02:39:51;;;;;;;5.40;4.88;;;;;;;10.32;70.40;100360.38;5027109;28;20036;-42
2021/10/30 02:42:16;;;;;;;6.82;5.20;;;;;;;10.32;70.62;100363.00;5026174;28;20059;-42
2021/10/30 02:44:41;;;;;;;5.63;4.80;;;;;;;10.32;70.33;100370.91;5013144;28;20031;-44
2021/10/30 02:47:06;;;;;;;7.13;5.32;;;;;;;10.30;70.64;100362.13;5026555;28;20104;-43
2021/10/30 02:49:32;;;;;;;6.47;5.32;;;;;;;10.31;70.31;100370.94;5027562;28;20117;-43
2021/10/30 02:51:58;;;;;;;5.35;4.32;;;;;;;10.31;70.42;100371.81;5023769;28;20076;-43
2021/10/30 02:54:23;;;;;;;6.78;5.38;;;;;;;10.30;70.39;100370.03;5014260;28;20033;-43
2021/10/30 02:56:49;;;;;;;6.97;4.75;;;;;;;10.30;70.42;100366.56;5020233;28;20036;-43
2021/10/30 02:59:14;;;;;;;8.27;4.85;;;;;;;10.31;70.60;100360.38;5027389;28;20033;-43
2021/10/30 03:01:39;;;;;;;6.70;4.22;;;;;;;10.29;70.19;100357.75;5028504;28;20029;-43
2021/10/30 03:04:05;;;;;;;7.03;6.22;;;;;;;10.28;70.47;100356.03;5011433;28;20032;-42
2021/10/30 03:06:31;;;;;;;4.40;4.00;;;;;;;10.29;70.21;100355.13;5025606;28;20040;-42
2021/10/30 03:08:57;;;;;;;4.90;4.38;;;;;;;10.28;70.46;100350.75;5029973;28;20029;-42
2021/10/30 03:11:22;;;;;;;6.90;5.55;;;;;;;10.28;70.40;100353.38;4993307;28;20508;-42
2021/10/30 03:13:48;;;;;;;6.07;4.82;;;;;;;10.28;70.36;100350.75;5024246;28;20039;-43
2021/10/30 03:16:13;;;;;;;6.15;5.03;;;;;;;10.27;70.67;100355.13;5025229;28;20516;-44
2021/10/30 03:18:38;;;;;;;6.88;5.90;;;;;;;10.26;70.41;100350.78;5029003;28;20025;-43
2021/10/30 03:21:04;;;;;;;4.82;3.83;;;;;;;10.28;70.53;100350.75;5014426;28;20033;-43
2021/10/30 03:23:30;;;;;;;5.68;5.03;;;;;;;10.27;70.15;100343.72;5022169;28;20132;-43
2021/10/30 03:25:55;;;;;;;7.47;5.25;;;;;;;10.25;70.28;100351.66;5019981;28;20092;-43
2021/10/30 03:28:20;;;;;;;6.65;4.85;;;;;;;10.26;70.26;100352.53;5017109;28;20137;-42
2021/10/30 03:30:46;;;;;;;6.75;5.72;;;;;;;10.25;70.40;100341.13;5027074;28;20171;-43
2021/10/30 03:33:11;;;;;;;6.85;5.45;;;;;;;10.25;70.41;100345.50;5032626;28;20029;-43
2021/10/30 03:35:38;;;;;;;5.88;5.15;;;;;;;10.25;70.15;100351.66;5033975;28;20022;-43
2021/10/30 03:38:03;;;;;;;6.93;5.13;;;;;;;10.23;70.17;100345.53;5020826;28;20107;-43
2021/10/30 03:40:28;;;;;;;5.57;4.47;;;;;;;10.24;70.25;100354.31;5027187;28;20076;-44
2021/10/30 03:42:54;;;;;;;7.13;6.28;;;;;;;10.24;70.04;100349.06;5035145;28;20079;-42
2021/10/30 03:45:19;;;;;;;6.82;5.07;;;;;;;10.23;70.34;100342.00;5031285;28;20025;-43
2021/10/30 03:47:44;;;;;;;6.00;5.40;;;;;;;10.22;70.46;100340.28;5029330;28;20033;-44
2021/10/30 03:50:10;;;;;;;6.03;5.43;;;;;;;10.21;70.18;100338.53;5022668;28;20497;-43
2021/10/30 03:52:36;;;;;;;5.35;4.80;;;;;;;10.22;70.24;100332.38;5030034;28;20060;-43
2021/10/30 03:55:01;;;;;;;6.18;5.57;;;;;;;10.20;70.35;100332.38;5031151;28;20029;-43
2021/10/30 03:57:27;;;;;;;7.07;5.28;;;;;;;10.21;70.04;100339.41;5025030;28;20108;-44
2021/10/30 03:59:52;;;;;;;4.30;3.60;;;;;;;10.22;70.12;100345.56;5022100;28;20113;-44
2021/10/30 04:02:19;;;;;;;6.57;5.13;;;;;;;10.20;70.05;100339.44;5034332;28;20049;-44
2021/10/30 04:04:44;;;;;;;6.75;5.68;;;;;;;10.19;70.17;100338.56;5022565;28;20518;-44
2021/10/30 04:07:10;;;;;;;5.57;5.07;;;;;;;10.19;70.17;100335.03;5019525;28;20025;-42
2021/10/30 04:09:35;;;;;;;4.28;3.85;;;;;;;10.19;70.07;100335.94;5023277;28;20402;-43
2021/10/30 04:12:00;;;;;;;5.78;4.75;;;;;;;10.18;70.10;100338.56;5018159;28;20056;-42
2021/10/30 04:14:25;;;;;;;5.85;4.65;;;;;;;10.19;69.98;100335.03;5029113;28;20639;-42
2021/10/30 04:16:51;;;;;;;5.10;4.47;;;;;;;10.18;70.19;100335.94;5024764;28;20029;-42
2021/10/30 04:19:16;;;;;;;4.93;4.03;;;;;;;10.18;69.87;100336.81;5025539;28;20033;-42
2021/10/30 04:21:42;;;;;;;5.80;4.90;;;;;;;10.18;69.92;100328.03;5030730;28;20056;-42
2021/10/30 04:24:08;;;;;;;7.65;4.72;;;;;;;10.17;70.07;100327.16;5023713;28;20496;-43
2021/10/30 04:26:33;;;;;;;6.13;5.07;;;;;;;10.16;69.98;100319.25;5023557;28;20048;-44
2021/10/30 04:28:59;;;;;;;5.43;4.78;;;;;;;10.17;70.14;100326.31;5033351;28;20079;-43
2021/10/30 04:31:27;;;;;;;7.00;6.13;;;;;;;10.16;70.00;100321.91;5019863;28;20108;-43
2021/10/30 04:33:54;;;;;;;7.32;5.65;;;;;;;10.16;69.93;100314.00;5023991;28;20496;-43
2021/10/30 04:36:20;;;;;;;6.00;5.40;;;;;;;10.15;69.86;100318.41;5024583;28;20033;-43
2021/10/30 04:38:46;;;;;;;6.10;4.88;;;;;;;10.14;70.15;100316.69;5032512;28;20076;-43
2021/10/30 04:41:12;;;;;;;7.25;5.25;;;;;;;10.14;70.07;100311.41;5026959;28;20036;-43
2021/10/30 04:43:38;;;;;;;6.88;5.22;;;;;;;10.12;70.09;100306.16;5026410;28;20124;-44
2021/10/30 04:46:03;;;;;;;8.45;5.68;;;;;;;10.12;69.80;100300.88;5021613;28;20022;-44
2021/10/30 04:48:29;;;;;;;5.97;5.10;;;;;;;10.14;70.09;100303.50;5026045;28;20021;-43
2021/10/30 04:50:55;;;;;;;5.22;4.45;;;;;;;10.11;69.94;100299.13;5024458;28;20033;-43
2021/10/30 04:53:20;;;;;;;7.30;5.75;;;;;;;10.09;69.98;100290.38;5033263;28;20041;-43
2021/10/30 04:55:45;;;;;;;7.38;5.53;;;;;;;10.11;69.72;100296.47;5029600;28;20033;-44
2021/10/30 04:58:10;;;;;;;5.38;4.20;;;;;;;10.11;69.82;100295.63;5022303;28;20351;-44
2021/10/30 05:00:36;;;;;;;6.45;5.65;;;;;;;10.11;69.95;100296.47;5028560;28;20048;-43
2021/10/30 05:03:01;;;;;;;6.72;4.97;;;;;;;10.09;69.87;100290.38;5025451;28;20033;-43
2021/10/30 05:05:26;;;;;;;7.28;5.63;;;;;;;10.08;69.84;100286.00;5028366;28;20025;-43
2021/10/30 05:07:52;;;;;;;7.05;5.47;;;;;;;10.08;69.74;100286.00;5018403;28;20034;-44
2021/10/30 05:10:17;;;;;;;5.80;4.82;;;;;;;10.08;69.68;100277.22;5020732;28;20086;-43
2021/10/30 05:12:43;;;;;;;5.00;4.20;;;;;;;10.07;69.75;100276.34;5030575;28;20112;-43
2021/10/30 05:15:08;;;;;;;6.95;4.53;;;;;;;10.06;69.61;100269.34;5026548;28;20504;-43
2021/10/30 05:17:34;;;;;;;6.05;5.40;;;;;;;10.06;69.93;100264.06;5022339;28;20032;-42
2021/10/30 05:19:59;;;;;;;6.18;5.63;;;;;;;10.05;70.06;100264.97;5025178;28;20108;-43
2021/10/30 05:22:24;;;;;;;4.30;3.72;;;;;;;10.05;69.60;100261.44;5025865;28;20108;-42
2021/10/30 05:24:50;;;;;;;5.55;4.78;;;;;;;10.05;69.54;100254.41;5021786;28;20125;-42
2021/10/30 05:27:16;;;;;;;7.05;6.35;;;;;;;10.03;69.75;100256.19;5021789;28;20017;-42
2021/10/30 05:29:41;;;;;;;9.07;6.25;;;;;;;10.03;69.95;100244.81;5017208;28;20048;-42
2021/10/30 05:32:07;;;;;;;6.65;5.63;;;;;;;10.03;69.84;100248.28;5024711;28;20025;-44
2021/10/30 05:34:32;;;;;;;8.50;6.50;;;;;;;10.02;69.78;100254.47;5014735;28;20485;-42
2021/10/30 05:36:57;;;;;;;6.95;5.22;;;;;;;10.02;69.58;100243.91;5028755;28;20030;-43
2021/10/30 05:39:23;;;;;;;5.57;4.75;;;;;;;10.02;69.65;100265.00;5018038;28;20033;-43
2021/10/30 05:41:49;;;;;;;5.80;4.55;;;;;;;10.01;69.55;100253.56;5024964;28;20033;-43
2021/10/30 05:44:14;;;;;;;6.63;5.97;;;;;;;10.02;69.75;100257.09;5021298;28;20104;-44
2021/10/30 05:46:40;;;;;;;5.78;4.65;;;;;;;10.01;69.56;100255.38;5022306;28;20085;-42
2021/10/30 05:49:06;;;;;;;7.00;6.00;;;;;;;10.00;69.67;100270.28;5011904;28;20120;-44
2021/10/30 05:51:33;;;;;;;7.32;5.07;;;;;;;9.99;69.74;100265.91;5013913;28;20473;-43
2021/10/30 05:53:58;;;;;;;7.78;6.25;;;;;;;9.99;69.79;100259.75;5027467;28;20072;-43
2021/10/30 05:56:23;;;;;;;7.03;5.80;;;;;;;9.99;69.74;100262.41;5019243;28;20049;-43
2021/10/30 05:58:49;;;;;;;7.15;5.25;;;;;;;9.99;69.70;100262.41;5016259;28;20029;-43
2021/10/30 06:01:14;;;;;;;5.88;5.15;;;;;;;9.97;69.47;100257.16;5019852;28;20025;-42
2021/10/30 06:03:39;;;;;;;7.65;5.32;;;;;;;9.98;69.72;100263.31;5028620;28;20030;-43
2021/10/30 06:06:04;;;;;;;9.13;6.18;;;;;;;9.96;69.45;100257.16;5018464;28;20098;-44
2021/10/30 06:08:30;;;;;;;7.18;5.25;;;;;;;9.97;69.48;100256.28;5023261;28;20049;-43
2021/10/30 06:10:56;;;;;;;6.13;5.13;;;;;;;9.96;69.43;100265.06;5028375;28;20062;-44
2021/10/30 06:13:21;;;;;;;7.63;5.93;;;;;;;9.94;69.41;100262.44;5031220;28;20037;-43
2021/10/30 06:15:47;;;;;;;8.13;6.55;;;;;;;9.95;69.46;100252.78;5039355;28;20025;-42
2021/10/30 06:18:12;;;;;;;6.28;5.57;;;;;;;9.94;69.66;100246.66;5032297;28;20397;-44
2021/10/30 06:20:37;;;;;;;8.63;6.10;;;;;;;9.94;69.64;100240.53;5020269;28;20482;-43
2021/10/30 06:23:03;;;;;;;7.57;6.35;;;;;;;9.92;69.64;100244.94;5016197;28;20118;-44
2021/10/30 06:25:29;;;;;;;7.78;5.68;;;;;;;9.91;69.44;100228.28;5016653;28;20379;-44
2021/10/30 06:27:55;;;;;;;8.38;6.85;;;;;;;9.92;69.63;100242.28;5027561;28;20095;-43
2021/10/30 06:30:20;;;;;;;7.72;5.03;;;;;;;9.91;69.49;100232.66;5019210;28;20022;-42
2021/10/30 06:32:46;;;;;;;10.65;6.35;;;;;;;9.90;69.37;100234.41;5026265;28;20088;-42
2021/10/30 06:35:11;;;;;;;8.25;6.90;;;;;;;9.91;69.47;100230.03;5019229;28;20033;-42
2021/10/30 06:37:40;;;;;;;9.20;6.15;;;;;;;9.90;69.47;100226.50;5025868;28;20510;-43
2021/10/30 06:40:07;;;;;;;10.13;6.50;;;;;;;9.90;69.64;100223.03;5006654;28;20115;-44
2021/10/30 06:42:33;;;;;;;6.45;5.15;;;;;;;9.88;69.44;100218.63;5024484;28;20040;-43
2021/10/30 06:44:58;;;;;;;7.57;6.10;;;;;;;9.88;69.60;100210.72;5021376;28;20033;-43
2021/10/30 06:47:23;;;;;;;6.72;6.03;;;;;;;9.87;69.68;100203.72;5025606;28;20492;-43
2021/10/30 06:49:48;;;;;;;8.20;6.65;;;;;;;9.87;69.46;100211.63;5020467;28;20048;-43
2021/10/30 06:52:14;;;;;;;8.38;6.43;;;;;;;9.87;69.55;100208.97;5028129;28;20017;-43
2021/10/30 06:54:40;;;;;;;8.70;5.45;;;;;;;9.88;69.25;100210.72;5010650;28;20117;-43
2021/10/30 06:57:07;;;;;;;6.63;5.68;;;;;;;9.87;69.35;100203.72;5017472;28;20106;-43
2021/10/30 06:59:34;;;;;;;8.10;5.93;;;;;;;9.88;69.45;100204.59;5020875;28;20076;-44
2021/10/30 07:01:59;;;;;;;6.20;5.60;;;;;;;9.90;69.32;100201.94;5020820;28;20109;-43
2021/10/30 07:04:24;;;;;;;6.25;4.88;;;;;;;9.88;69.38;100210.72;5028894;28;20177;-43
2021/10/30 07:06:51;;;;;;;6.07;5.47;;;;;;;9.89;69.28;100206.34;5033061;28;20100;-44
2021/10/30 07:09:16;;;;;;;8.25;6.82;;;;;;;9.88;69.61;100194.91;5030322;28;20029;-42
2021/10/30 07:11:44;;;;;;;9.18;6.40;;;;;;;9.88;69.34;100200.19;5035961;28;20025;-42
2021/10/30 07:14:10;;;;;;;8.82;6.60;;;;;;;9.88;69.43;100199.34;5028282;28;20029;-43
2021/10/30 07:16:35;;;;;;;7.40;5.80;;;;;;;9.87;69.24;100203.72;5025408;28;20501;-43
2021/10/30 07:19:00;;;;;;;6.10;5.43;;;;;;;9.86;69.56;100204.63;5024888;28;20041;-43
2021/10/30 07:21:25;;;;;;;5.82;4.82;;;;;;;9.87;69.56;100203.72;5025792;28;20033;-43
2021/10/30 07:23:52;;;;;;;5.97;5.20;;;;;;;9.87;69.46;100203.72;5038223;28;20021;-44
2021/10/30 07:26:17;;;;;;;7.97;6.32;;;;;;;9.87;69.56;100208.97;5025667;28;20376;-44
2021/10/30 07:28:42;;;;;;;9.98;6.45;;;;;;;9.87;69.53;100206.34;5029227;28;20025;-43
2021/10/30 07:31:08;;;;;;;6.72;5.95;;;;;;;9.86;69.31;100204.63;5032997;28;20044;-43
2021/10/30 07:33:33;;;;;;;6.50;4.47;;;;;;;9.88;69.51;100205.44;5033902;28;20818;-43
2021/10/30 07:35:59;;;;;;;9.23;6.68;;;;;;;9.87;69.60;100201.09;5031561;28;20029;-42
2021/10/30 07:38:24;;;;;;;7.13;5.57;;;;;;;9.86;69.47;100207.25;5043141;28;20033;-44
2021/10/30 07:40:50;;;;;;;8.45;5.55;;;;;;;9.87;69.60;100205.50;5026032;28;20168;-43
2021/10/30 07:43:16;;;;;;;7.15;5.88;;;;;;;9.87;69.34;100213.41;5027804;28;20094;-43
2021/10/30 07:45:42;;;;;;;6.18;5.40;;;;;;;9.87;69.58;100211.63;5024626;28;20017;-43
2021/10/30 07:48:08;;;;;;;7.28;5.65;;;;;;;9.87;69.54;100214.25;5021765;28;20381;-44
2021/10/30 07:50:34;;;;;;;7.60;5.78;;;;;;;9.86;69.35;100201.97;5021922;28;20500;-42
2021/10/30 07:53:01;;;;;;;9.25;6.43;;;;;;;9.86;69.43;100194.09;5015212;28;20033;-42
2021/10/30 07:55:26;;;;;;;6.75;5.88;;;;;;;9.87;69.33;100187.91;5024613;28;20473;-43
2021/10/30 07:57:52;;;;;;;8.95;6.25;;;;;;;9.85;69.25;100175.66;5032982;28;20059;-42
2021/10/30 08:00:17;;;;;;;7.95;6.40;;;;;;;9.86;69.50;100178.28;5032418;28;20508;-42
2021/10/30 08:02:43;;;;;;;6.60;5.28;;;;;;;9.86;69.49;100169.50;5032528;28;20066;-43
2021/10/30 08:05:10;;;;;;;7.32;5.97;;;;;;;9.84;69.32;100166.88;5017249;28;20488;-43
2021/10/30 08:07:36;;;;;;;7.75;6.78;;;;;;;9.84;69.24;100158.97;5033022;28;20110;-44
2021/10/30 08:10:04;;;;;;;9.35;6.45;;;;;;;9.85;69.51;100160.75;5033096;28;20481;-43
2021/10/30 08:12:29;;;;;;;9.07;6.60;;;;;;;9.85;69.58;100146.69;5039627;28;20033;-42
2021/10/30 08:14:54;;;;;;;9.18;6.88;;;;;;;9.84;69.20;100148.44;5013390;28;20034;-42
2021/10/30 08:17:20;;;;;;;9.35;6.45;;;;;;;9.84;69.24;100156.34;5031707;28;20021;-42
2021/10/30 08:19:45;;;;;;;7.05;5.45;;;;;;;9.84;69.27;100156.34;5033357;28;20033;-43
2021/10/30 08:22:10;;;;;;;9.10;6.28;;;;;;;9.83;69.32;100153.72;5033563;28;20045;-43
2021/10/30 08:24:36;;;;;;;5.65;5.18;;;;;;;9.83;69.42;100136.16;5029497;28;20033;-43
2021/10/30 08:27:01;;;;;;;7.93;5.82;;;;;;;9.83;69.59;100143.19;5015813;28;20605;-43
2021/10/30 08:29:27;;;;;;;11.27;6.78;;;;;;;9.82;69.60;100142.34;5030856;28;20062;-43
2021/10/30 08:31:53;;;;;;;6.50;5.20;;;;;;;9.82;69.54;100142.34;5015816;28;20030;-43
2021/10/30 08:34:18;;;;;;;9.15;6.30;;;;;;;9.82;69.58;100139.72;5031379;28;20025;-43
2021/10/30 08:36:43;;;;;;;8.40;6.93;;;;;;;9.81;69.57;100135.34;5027015;28;20033;-43
2021/10/30 08:39:09;;;;;;;7.68;6.35;;;;;;;9.80;69.31;100130.94;5032976;28;20033;-43
2021/10/30 08:41:35;;;;;;;6.40;5.75;;;;;;;9.79;69.47;100121.31;5032526;28;20075;-43
2021/10/30 08:44:01;;;;;;;5.70;4.68;;;;;;;9.81;69.39;100114.28;5031583;28;20025;-43
2021/10/30 08:46:30;;;;;;;7.07;5.75;;;;;;;9.81;69.53;100109.00;5031807;28;20370;-43
2021/10/30 08:48:57;;;;;;;8.88;6.63;;;;;;;9.81;69.39;100108.13;5033749;28;20034;-42
2021/10/30 08:51:23;;;;;;;7.95;7.03;;;;;;;9.80;69.39;100096.69;5028200;28;20132;-42
2021/10/30 08:53:48;;;;;;;9.23;6.47;;;;;;;9.80;69.51;100091.44;5022762;28;20520;-42
2021/10/30 08:56:13;;;;;;;8.70;5.45;;;;;;;9.81;69.43;100076.53;5031709;28;20025;-42
2021/10/30 08:58:39;;;;;;;7.20;5.85;;;;;;;9.80;69.45;100075.63;5033211;28;20037;-42
2021/10/30 09:01:07;;;;;;;5.60;5.05;;;;;;;9.80;69.33;100070.38;5028863;28;20022;-43
2021/10/30 09:03:33;;;;;;;8.73;5.68;;;;;;;9.80;69.44;100067.72;5043342;28;20025;-42
2021/10/30 09:05:59;;;;;;;7.72;6.50;;;;;;;9.81;69.64;100076.53;5032750;28;20072;-43
2021/10/30 09:08:26;;;;;;;7.00;6.30;;;;;;;9.80;69.50;100080.91;5024316;28;20079;-43
2021/10/30 09:10:57;;;;;;;6.78;6.10;;;;;;;9.80;69.62;100070.38;5023549;28;20036;-43
2021/10/30 09:13:27;;;;;;;5.60;4.97;;;;;;;9.82;69.46;100072.97;5028273;28;20029;-43
2021/10/30 09:15:54;;;;;;;5.40;4.65;;;;;;;9.81;69.65;100079.16;5027480;28;20037;-43
2021/10/30 09:18:22;;;;;;;6.60;5.63;;;;;;;9.80;69.34;100070.38;5027253;28;20030;-43
2021/10/30 09:20:49;;;;;;;8.35;5.93;;;;;;;9.82;69.52;100067.72;5032359;28;20089;-43
2021/10/30 09:23:20;;;;;;;7.15;6.07;;;;;;;9.81;69.42;100051.06;5037968;28;20473;-43
2021/10/30 09:26:00;;;;;;;7.80;6.60;;;;;;;9.80;69.48;100054.56;5026353;28;20091;-44
2021/10/30 09:28:30;;;;;;;9.60;5.90;;;;;;;9.80;69.57;100054.56;5026721;28;20027;-43
2021/10/30 09:31:06;;;;;;;8.98;6.20;;;;;;;9.80;69.54;100059.84;5022068;28;20033;-43
2021/10/30 09:33:33;;;;;;;6.75;5.57;;;;;;;9.81;69.69;100058.97;5042339;28;20047;-43
2021/10/30 09:36:11;;;;;;;7.45;5.72;;;;;;;9.82;69.68;100052.78;5040088;28;20480;-43
2021/10/30 09:38:39;;;;;;;6.03;4.93;;;;;;;9.82;69.51;100044.88;5036268;28;20038;-43
2021/10/30 09:41:25;;;;;;;7.10;5.50;;;;;;;9.82;69.60;100052.78;5043486;28;20025;-43
2021/10/30 09:44:03;;;;;;;7.00;5.43;;;;;;;9.82;69.71;100047.53;5036394;28;20037;-42
2021/10/30 09:46:45;;;;;;;7.10;5.63;;;;;;;9.83;69.66;100048.38;5032157;28;20018;-43
2021/10/30 09:49:14;;;;;;;7.07;5.13;;;;;;;9.82;69.71;100047.53;5036286;28;20021;-43
2021/10/30 09:51:39;;;;;;;6.97;5.50;;;;;;;9.82;69.46;100044.88;5024310;28;20040;-43
2021/10/30 09:54:06;;;;;;;5.97;5.07;;;;;;;9.82;69.61;100047.53;5031805;28;20033;-43
2021/10/30 09:56:48;;;;;;;6.70;5.82;;;;;;;9.83;69.58;100043.09;5022883;28;20025;-43
2021/10/30 09:59:17;;;;;;;7.90;7.10;;;;;;;9.82;69.85;100042.25;5023533;28;20036;-43
2021/10/30 10:01:47;;;;;;;7.63;6.13;;;;;;;9.83;69.73;100043.09;5025649;28;20027;-43
2021/10/30 10:04:14;;;;;;;9.82;5.97;;;;;;;9.82;69.74;100042.25;5030910;28;20027;-43
2021/10/30 10:06:41;;;;;;;8.13;6.88;;;;;;;9.82;69.63;100041.38;5028730;28;20053;-44
2021/10/30 10:09:07;;;;;;;8.13;6.05;;;;;;;9.81;69.74;100043.16;5035589;28;20033;-43
2021/10/30 10:11:32;;;;;;;8.43;7.47;;;;;;;9.82;69.60;100036.09;5033935;28;20030;-43
2021/10/30 10:13:59;;;;;;;8.45;6.10;;;;;;;9.82;69.60;100042.25;5024547;28;20131;-43
2021/10/30 10:16:25;;;;;;;8.88;7.03;;;;;;;9.81;69.62;100035.25;5028159;28;20021;-43
2021/10/30 10:18:52;;;;;;;7.60;5.60;;;;;;;9.81;69.64;100040.53;5026273;28;20036;-43
2021/10/30 10:21:26;;;;;;;8.13;6.13;;;;;;;9.82;69.78;100039.63;5017036;28;20472;-44
2021/10/30 10:23:53;;;;;;;6.85;6.05;;;;;;;9.82;69.65;100042.25;5025218;28;20033;-43
2021/10/30 10:26:18;;;;;;;10.18;6.22;;;;;;;9.82;69.76;100031.72;5029938;28;20017;-43
2021/10/30 10:28:44;;;;;;;8.48;6.57;;;;;;;9.83;69.85;100029.94;5020689;28;20032;-43
2021/10/30 10:31:25;;;;;;;7.45;6.53;;;;;;;9.83;69.66;100027.31;5028120;28;20026;-42
2021/10/30 10:34:09;;;;;;;;;;;;;;;9.84;69.62;100022.00;5039304;28;20034;-42
2021/10/30 10:36:37;;;;;;;6.47;5.22;;;;;;;9.82;69.71;100015.91;5027425;28;19913;-43
2021/10/30 10:39:02;;;;;;;6.28;5.30;;;;;;;9.83;69.88;100014.13;5014661;28;20047;-42
2021/10/30 10:41:36;;;;;;;7.03;4.97;;;;;;;9.83;69.71;100001.84;5012187;28;20584;-43
2021/10/30 10:44:02;;;;;;;7.55;6.60;;;;;;;9.83;69.84;99991.31;5021616;28;20117;-43
2021/10/30 10:46:29;;;;;;;7.55;5.82;;;;;;;9.83;69.86;99986.03;5020443;28;20489;-43
2021/10/30 10:49:19;;;;;;;7.45;6.72;;;;;;;9.84;69.66;99982.50;5040416;28;20369;-44
2021/10/30 10:51:52;;;;;;;6.95;4.90;;;;;;;9.83;69.75;99975.50;5013103;28;20029;-43
2021/10/30 10:54:17;;;;;;;7.55;5.35;;;;;;;9.84;69.62;99968.50;5022674;28;20029;-43
2021/10/30 10:56:59;;;;;;;7.10;5.82;;;;;;;9.84;69.88;99971.97;5024889;28;20024;-43
2021/10/30 10:59:41;;;;;;;6.18;5.03;;;;;;;9.85;69.72;99980.75;5019343;28;20600;-43
2021/10/30 11:02:20;;;;;;;7.10;6.13;;;;;;;9.86;69.75;99985.13;5018621;28;20068;-43
2021/10/30 11:05:07;;;;;;;6.55;5.63;;;;;;;9.85;69.93;99965.84;5020999;28;20025;-42
2021/10/30 11:07:33;;;;;;;9.30;6.25;;;;;;;9.84;69.68;99955.31;5023597;28;20100;-43
2021/10/30 11:10:08;;;;;;;8.82;6.72;;;;;;;9.85;69.97;99957.94;5021979;28;20033;-43
2021/10/30 11:12:33;;;;;;;7.70;5.90;;;;;;;9.85;69.77;99952.66;5020025;28;20108;-43
2021/10/30 11:15:13;;;;;;;9.10;7.13;;;;;;;9.85;69.75;99947.41;5018568;28;20034;-41
2021/10/30 11:18:13;;;;;;;7.25;5.05;;;;;;;9.86;69.93;99935.94;5015532;28;20018;-46
2021/10/30 11:20:42;;;;;;;7.47;6.05;;;;;;;9.86;69.68;99928.06;5020765;28;20045;-42
2021/10/30 11:23:18;;;;;;;7.38;5.88;;;;;;;9.85;69.64;99925.44;5021073;28;20021;-41
2021/10/30 11:25:44;;;;;;;8.52;6.65;;;;;;;9.85;69.96;99926.31;5018394;28;20030;-42
2021/10/30 11:28:09;;;;;;;9.38;6.43;;;;;;;9.85;69.89;99918.41;5021721;28;20022;-43